Strong City, Kansas
Current Conditions -  °F | °C
As of 4:53 AM on Sunday 23 Nov 2014 (Local Time) from KEMP Reporting Station
Haze Haze  
Wind Chill: 54°   Ceiling: 600
Heat Index: 54°   Visibility: 6mi
Dew Point: 53°   Wind: 15mph
Humidity: 97%   Direction: 160°SSE
Pressure: 29.5"   Gusts: 23mph
Location:  38.4°N, 96.54°W
Report Text: KEMP 231053Z AUTO 16013G20KT 6SM BR OVC006 12/12 A2950 RMK AO2 CIG 005V010 SLP989 T01220117
Loading
Personal Weather Stations






























Interactive Weather Map New forecast layout! Learn more

10-Day Weather Forecast

Advertisements
Track Severe Weather on mobile